sensor_id;sensor_type;location;lat;lon;timestamp;P1;durP1;ratioP1;P2;durP2;ratioP2
14076;SDS011;7114;51.100;13.998;2022-08-05T00:01:39;8.87;;;4.47;;
14076;SDS011;7114;51.100;13.998;2022-08-05T00:04:05;8.70;;;4.80;;
14076;SDS011;7114;51.100;13.998;2022-08-05T00:06:32;8.80;;;4.60;;
14076;SDS011;7114;51.100;13.998;2022-08-05T00:08:58;9.20;;;4.65;;
14076;SDS011;7114;51.100;13.998;2022-08-05T00:11:26;8.07;;;4.63;;
14076;SDS011;7114;51.100;13.998;2022-08-05T00:13:53;7.63;;;4.60;;
14076;SDS011;7114;51.100;13.998;2022-08-05T00:16:19;8.30;;;4.63;;
14076;SDS011;7114;51.100;13.998;2022-08-05T00:18:46;8.55;;;4.90;;
14076;SDS011;7114;51.100;13.998;2022-08-05T00:21:13;7.90;;;4.95;;
14076;SDS011;7114;51.100;13.998;2022-08-05T00:23:41;8.23;;;4.75;;
14076;SDS011;7114;51.100;13.998;2022-08-05T00:26:08;8.68;;;4.80;;
14076;SDS011;7114;51.100;13.998;2022-08-05T00:28:36;11.93;;;5.13;;
14076;SDS011;7114;51.100;13.998;2022-08-05T00:31:03;15.23;;;5.20;;
14076;SDS011;7114;51.100;13.998;2022-08-05T00:33:30;13.52;;;5.22;;
14076;SDS011;7114;51.100;13.998;2022-08-05T00:35:57;12.23;;;4.50;;
14076;SDS011;7114;51.100;13.998;2022-08-05T00:38:23;9.98;;;4.80;;
14076;SDS011;7114;51.100;13.998;2022-08-05T00:40:50;7.67;;;4.80;;
14076;SDS011;7114;51.100;13.998;2022-08-05T00:43:17;9.20;;;4.80;;
14076;SDS011;7114;51.100;13.998;2022-08-05T00:45:45;8.02;;;4.63;;
14076;SDS011;7114;51.100;13.998;2022-08-05T00:48:12;8.73;;;4.40;;
14076;SDS011;7114;51.100;13.998;2022-08-05T00:50:40;9.95;;;4.63;;
14076;SDS011;7114;51.100;13.998;2022-08-05T00:53:07;9.00;;;4.53;;
14076;SDS011;7114;51.100;13.998;2022-08-05T00:55:33;8.33;;;4.80;;
14076;SDS011;7114;51.100;13.998;2022-08-05T00:58:00;8.47;;;5.00;;
14076;SDS011;7114;51.100;13.998;2022-08-05T01:00:26;9.98;;;5.05;;
14076;SDS011;7114;51.100;13.998;2022-08-05T01:02:55;8.20;;;4.50;;
14076;SDS011;7114;51.100;13.998;2022-08-05T01:05:22;8.85;;;4.90;;
14076;SDS011;7114;51.100;13.998;2022-08-05T01:07:48;8.40;;;4.90;;
14076;SDS011;7114;51.100;13.998;2022-08-05T01:10:15;8.67;;;4.87;;
14076;SDS011;7114;51.100;13.998;2022-08-05T01:12:43;11.18;;;4.85;;
14076;SDS011;7114;51.100;13.998;2022-08-05T01:15:12;10.20;;;4.80;;
14076;SDS011;7114;51.100;13.998;2022-08-05T01:17:39;10.73;;;4.90;;
14076;SDS011;7114;51.100;13.998;2022-08-05T01:20:12;8.82;;;4.65;;
14076;SDS011;7114;51.100;13.998;2022-08-05T01:22:50;7.37;;;4.50;;
14076;SDS011;7114;51.100;13.998;2022-08-05T01:25:28;8.40;;;4.53;;
14076;SDS011;7114;51.100;13.998;2022-08-05T01:28:10;7.95;;;4.53;;
14076;SDS011;7114;51.100;13.998;2022-08-05T01:30:40;8.38;;;4.55;;
14076;SDS011;7114;51.100;13.998;2022-08-05T01:33:10;8.50;;;4.50;;
14076;SDS011;7114;51.100;13.998;2022-08-05T01:35:38;7.83;;;4.50;;
14076;SDS011;7114;51.100;13.998;2022-08-05T01:38:06;7.27;;;4.07;;
14076;SDS011;7114;51.100;13.998;2022-08-05T01:40:33;8.40;;;4.32;;
14076;SDS011;7114;51.100;13.998;2022-08-05T01:43:01;9.00;;;4.50;;
14076;SDS011;7114;51.100;13.998;2022-08-05T01:45:29;10.02;;;4.47;;
14076;SDS011;7114;51.100;13.998;2022-08-05T01:47:55;7.70;;;4.32;;
14076;SDS011;7114;51.100;13.998;2022-08-05T01:50:23;7.63;;;4.30;;
14076;SDS011;7114;51.100;13.998;2022-08-05T01:52:51;7.50;;;4.50;;
14076;SDS011;7114;51.100;13.998;2022-08-05T01:55:19;8.48;;;4.40;;
14076;SDS011;7114;51.100;13.998;2022-08-05T01:57:48;7.45;;;4.22;;
14076;SDS011;7114;51.100;13.998;2022-08-05T02:00:15;7.10;;;4.20;;
14076;SDS011;7114;51.100;13.998;2022-08-05T02:02:44;8.13;;;4.15;;
14076;SDS011;7114;51.100;13.998;2022-08-05T02:05:14;7.20;;;3.87;;
14076;SDS011;7114;51.100;13.998;2022-08-05T02:07:40;7.47;;;4.23;;
14076;SDS011;7114;51.100;13.998;2022-08-05T02:10:08;8.10;;;4.50;;
14076;SDS011;7114;51.100;13.998;2022-08-05T02:12:36;8.07;;;4.18;;
14076;SDS011;7114;51.100;13.998;2022-08-05T02:15:09;7.63;;;4.60;;
14076;SDS011;7114;51.100;13.998;2022-08-05T02:17:39;8.63;;;4.55;;
14076;SDS011;7114;51.100;13.998;2022-08-05T02:20:10;7.27;;;4.20;;
14076;SDS011;7114;51.100;13.998;2022-08-05T02:22:40;8.00;;;4.18;;
14076;SDS011;7114;51.100;13.998;2022-08-05T02:25:11;9.02;;;4.50;;
14076;SDS011;7114;51.100;13.998;2022-08-05T02:27:41;8.00;;;4.75;;
14076;SDS011;7114;51.100;13.998;2022-08-05T02:30:13;8.43;;;5.07;;
14076;SDS011;7114;51.100;13.998;2022-08-05T02:32:39;9.90;;;4.60;;
14076;SDS011;7114;51.100;13.998;2022-08-05T02:35:09;8.77;;;5.00;;
14076;SDS011;7114;51.100;13.998;2022-08-05T02:37:37;10.18;;;4.85;;
14076;SDS011;7114;51.100;13.998;2022-08-05T02:40:04;8.40;;;4.93;;
14076;SDS011;7114;51.100;13.998;2022-08-05T02:42:32;9.68;;;4.97;;
14076;SDS011;7114;51.100;13.998;2022-08-05T02:44:58;9.57;;;5.30;;
14076;SDS011;7114;51.100;13.998;2022-08-05T02:47:25;8.73;;;4.73;;
14076;SDS011;7114;51.100;13.998;2022-08-05T02:49:52;9.00;;;5.20;;
14076;SDS011;7114;51.100;13.998;2022-08-05T02:52:20;9.95;;;5.20;;
14076;SDS011;7114;51.100;13.998;2022-08-05T02:54:46;10.38;;;5.05;;
14076;SDS011;7114;51.100;13.998;2022-08-05T02:57:13;8.30;;;5.00;;
14076;SDS011;7114;51.100;13.998;2022-08-05T02:59:41;9.20;;;5.03;;
14076;SDS011;7114;51.100;13.998;2022-08-05T03:02:08;10.57;;;5.30;;
14076;SDS011;7114;51.100;13.998;2022-08-05T03:04:35;9.50;;;5.32;;
14076;SDS011;7114;51.100;13.998;2022-08-05T03:07:02;8.25;;;5.05;;
14076;SDS011;7114;51.100;13.998;2022-08-05T03:09:30;8.93;;;5.22;;
14076;SDS011;7114;51.100;13.998;2022-08-05T03:11:57;10.30;;;5.70;;
14076;SDS011;7114;51.100;13.998;2022-08-05T03:14:23;12.63;;;5.33;;
14076;SDS011;7114;51.100;13.998;2022-08-05T03:16:50;9.55;;;5.68;;
14076;SDS011;7114;51.100;13.998;2022-08-05T03:19:16;9.55;;;5.60;;
14076;SDS011;7114;51.100;13.998;2022-08-05T03:21:43;10.75;;;5.70;;
14076;SDS011;7114;51.100;13.998;2022-08-05T03:24:09;9.65;;;5.30;;
14076;SDS011;7114;51.100;13.998;2022-08-05T03:26:37;10.00;;;5.90;;
14076;SDS011;7114;51.100;13.998;2022-08-05T03:29:04;13.10;;;6.00;;
14076;SDS011;7114;51.100;13.998;2022-08-05T03:31:30;11.25;;;6.35;;
14076;SDS011;7114;51.100;13.998;2022-08-05T03:33:56;12.10;;;5.82;;
14076;SDS011;7114;51.100;13.998;2022-08-05T03:36:23;10.73;;;6.25;;
14076;SDS011;7114;51.100;13.998;2022-08-05T03:38:50;12.27;;;5.93;;
14076;SDS011;7114;51.100;13.998;2022-08-05T03:41:16;10.67;;;6.33;;
14076;SDS011;7114;51.100;13.998;2022-08-05T03:43:44;10.93;;;5.60;;
14076;SDS011;7114;51.100;13.998;2022-08-05T03:46:10;11.95;;;6.10;;
14076;SDS011;7114;51.100;13.998;2022-08-05T03:48:37;10.13;;;6.20;;
14076;SDS011;7114;51.100;13.998;2022-08-05T03:51:06;11.93;;;6.15;;
14076;SDS011;7114;51.100;13.998;2022-08-05T03:53:38;11.23;;;6.03;;
14076;SDS011;7114;51.100;13.998;2022-08-05T03:56:09;13.45;;;6.40;;
14076;SDS011;7114;51.100;13.998;2022-08-05T03:58:37;11.00;;;6.10;;
14076;SDS011;7114;51.100;13.998;2022-08-05T04:01:07;10.25;;;5.88;;
14076;SDS011;7114;51.100;13.998;2022-08-05T04:03:34;12.68;;;6.38;;
14076;SDS011;7114;51.100;13.998;2022-08-05T04:06:02;11.37;;;6.37;;
14076;SDS011;7114;51.100;13.998;2022-08-05T04:08:29;10.67;;;6.17;;
14076;SDS011;7114;51.100;13.998;2022-08-05T04:10:57;11.40;;;6.47;;
14076;SDS011;7114;51.100;13.998;2022-08-05T04:13:23;12.68;;;6.50;;
14076;SDS011;7114;51.100;13.998;2022-08-05T04:15:50;11.57;;;6.20;;
14076;SDS011;7114;51.100;13.998;2022-08-05T04:18:18;10.82;;;6.00;;
14076;SDS011;7114;51.100;13.998;2022-08-05T04:20:44;11.10;;;6.03;;
14076;SDS011;7114;51.100;13.998;2022-08-05T04:23:18;12.17;;;6.30;;
14076;SDS011;7114;51.100;13.998;2022-08-05T04:25:44;9.35;;;5.93;;
14076;SDS011;7114;51.100;13.998;2022-08-05T04:28:10;11.30;;;5.93;;
14076;SDS011;7114;51.100;13.998;2022-08-05T04:30:36;11.70;;;6.20;;
14076;SDS011;7114;51.100;13.998;2022-08-05T04:33:03;10.27;;;5.90;;
14076;SDS011;7114;51.100;13.998;2022-08-05T04:35:30;13.10;;;6.30;;
14076;SDS011;7114;51.100;13.998;2022-08-05T04:37:56;12.73;;;6.30;;
14076;SDS011;7114;51.100;13.998;2022-08-05T04:40:23;10.82;;;6.10;;
14076;SDS011;7114;51.100;13.998;2022-08-05T04:42:49;9.73;;;6.00;;
14076;SDS011;7114;51.100;13.998;2022-08-05T04:45:15;12.45;;;5.93;;
14076;SDS011;7114;51.100;13.998;2022-08-05T04:47:42;11.32;;;6.32;;
14076;SDS011;7114;51.100;13.998;2022-08-05T04:50:08;12.53;;;6.47;;
14076;SDS011;7114;51.100;13.998;2022-08-05T04:52:36;9.97;;;5.80;;
14076;SDS011;7114;51.100;13.998;2022-08-05T04:55:02;11.23;;;6.13;;
14076;SDS011;7114;51.100;13.998;2022-08-05T04:57:29;10.05;;;5.97;;
14076;SDS011;7114;51.100;13.998;2022-08-05T04:59:55;9.90;;;6.18;;
14076;SDS011;7114;51.100;13.998;2022-08-05T05:02:22;10.82;;;6.30;;
14076;SDS011;7114;51.100;13.998;2022-08-05T05:04:48;13.07;;;6.30;;
14076;SDS011;7114;51.100;13.998;2022-08-05T05:07:14;10.37;;;5.93;;
14076;SDS011;7114;51.100;13.998;2022-08-05T05:09:42;11.23;;;6.05;;
14076;SDS011;7114;51.100;13.998;2022-08-05T05:12:08;9.48;;;5.90;;
14076;SDS011;7114;51.100;13.998;2022-08-05T05:14:35;10.23;;;6.07;;
14076;SDS011;7114;51.100;13.998;2022-08-05T05:17:01;10.40;;;5.80;;
14076;SDS011;7114;51.100;13.998;2022-08-05T05:19:27;10.73;;;5.83;;
14076;SDS011;7114;51.100;13.998;2022-08-05T05:21:54;10.07;;;5.93;;
14076;SDS011;7114;51.100;13.998;2022-08-05T05:24:20;11.32;;;6.18;;
14076;SDS011;7114;51.100;13.998;2022-08-05T05:26:47;10.57;;;6.20;;
14076;SDS011;7114;51.100;13.998;2022-08-05T05:29:14;10.02;;;5.60;;
14076;SDS011;7114;51.100;13.998;2022-08-05T05:31:40;9.70;;;5.93;;
14076;SDS011;7114;51.100;13.998;2022-08-05T05:34:07;10.47;;;5.77;;
14076;SDS011;7114;51.100;13.998;2022-08-05T05:36:33;10.63;;;5.63;;
14076;SDS011;7114;51.100;13.998;2022-08-05T05:38:59;10.95;;;5.63;;
14076;SDS011;7114;51.100;13.998;2022-08-05T05:41:25;9.38;;;5.82;;
14076;SDS011;7114;51.100;13.998;2022-08-05T05:43:53;9.65;;;5.57;;
14076;SDS011;7114;51.100;13.998;2022-08-05T05:46:19;9.10;;;5.50;;
14076;SDS011;7114;51.100;13.998;2022-08-05T05:48:45;8.80;;;5.60;;
14076;SDS011;7114;51.100;13.998;2022-08-05T05:51:16;9.43;;;5.50;;
14076;SDS011;7114;51.100;13.998;2022-08-05T05:53:43;8.80;;;5.50;;
14076;SDS011;7114;51.100;13.998;2022-08-05T05:56:09;10.98;;;5.95;;
14076;SDS011;7114;51.100;13.998;2022-08-05T05:58:36;9.02;;;5.25;;
14076;SDS011;7114;51.100;13.998;2022-08-05T06:01:03;9.50;;;5.18;;
14076;SDS011;7114;51.100;13.998;2022-08-05T06:03:29;9.37;;;5.00;;
14076;SDS011;7114;51.100;13.998;2022-08-05T06:05:56;11.10;;;5.10;;
14076;SDS011;7114;51.100;13.998;2022-08-05T06:08:22;8.98;;;5.00;;
14076;SDS011;7114;51.100;13.998;2022-08-05T06:10:49;8.00;;;5.00;;
14076;SDS011;7114;51.100;13.998;2022-08-05T06:13:15;9.13;;;5.60;;
14076;SDS011;7114;51.100;13.998;2022-08-05T06:15:41;8.20;;;5.05;;
14076;SDS011;7114;51.100;13.998;2022-08-05T06:18:09;7.93;;;4.77;;
14076;SDS011;7114;51.100;13.998;2022-08-05T06:20:35;8.47;;;5.30;;
14076;SDS011;7114;51.100;13.998;2022-08-05T06:23:01;8.15;;;4.90;;
14076;SDS011;7114;51.100;13.998;2022-08-05T06:25:27;8.40;;;4.97;;
14076;SDS011;7114;51.100;13.998;2022-08-05T06:27:54;9.68;;;4.93;;
14076;SDS011;7114;51.100;13.998;2022-08-05T06:30:20;9.43;;;4.90;;
14076;SDS011;7114;51.100;13.998;2022-08-05T06:32:46;8.55;;;5.05;;
14076;SDS011;7114;51.100;13.998;2022-08-05T06:35:14;8.27;;;5.15;;
14076;SDS011;7114;51.100;13.998;2022-08-05T06:37:40;7.83;;;5.20;;
14076;SDS011;7114;51.100;13.998;2022-08-05T06:40:07;7.63;;;4.65;;
14076;SDS011;7114;51.100;13.998;2022-08-05T06:42:35;8.45;;;5.03;;
14076;SDS011;7114;51.100;13.998;2022-08-05T06:45:01;6.72;;;4.53;;
14076;SDS011;7114;51.100;13.998;2022-08-05T06:47:27;7.93;;;4.70;;
14076;SDS011;7114;51.100;13.998;2022-08-05T06:49:53;7.35;;;5.07;;
14076;SDS011;7114;51.100;13.998;2022-08-05T06:52:21;7.57;;;4.85;;
14076;SDS011;7114;51.100;13.998;2022-08-05T06:54:47;6.90;;;4.90;;
14076;SDS011;7114;51.100;13.998;2022-08-05T06:57:14;7.57;;;5.17;;
14076;SDS011;7114;51.100;13.998;2022-08-05T06:59:42;9.90;;;5.03;;
14076;SDS011;7114;51.100;13.998;2022-08-05T07:02:08;7.93;;;5.00;;
14076;SDS011;7114;51.100;13.998;2022-08-05T07:04:35;8.80;;;5.10;;
14076;SDS011;7114;51.100;13.998;2022-08-05T07:07:01;7.75;;;5.00;;
14076;SDS011;7114;51.100;13.998;2022-08-05T07:09:29;10.27;;;4.90;;
14076;SDS011;7114;51.100;13.998;2022-08-05T07:11:55;8.35;;;5.13;;
14076;SDS011;7114;51.100;13.998;2022-08-05T07:14:21;7.30;;;5.00;;
14076;SDS011;7114;51.100;13.998;2022-08-05T07:17:05;7.30;;;5.00;;
14076;SDS011;7114;51.100;13.998;2022-08-05T07:19:32;7.43;;;5.10;;
14076;SDS011;7114;51.100;13.998;2022-08-05T07:21:58;7.10;;;4.95;;
14076;SDS011;7114;51.100;13.998;2022-08-05T07:24:24;9.88;;;5.20;;
14076;SDS011;7114;51.100;13.998;2022-08-05T07:26:52;7.50;;;5.18;;
14076;SDS011;7114;51.100;13.998;2022-08-05T07:29:18;7.82;;;5.00;;
14076;SDS011;7114;51.100;13.998;2022-08-05T07:31:44;6.85;;;5.40;;
14076;SDS011;7114;51.100;13.998;2022-08-05T07:34:11;7.30;;;4.80;;
14076;SDS011;7114;51.100;13.998;2022-08-05T07:36:37;10.70;;;5.00;;
14076;SDS011;7114;51.100;13.998;2022-08-05T07:39:04;10.13;;;5.10;;
14076;SDS011;7114;51.100;13.998;2022-08-05T07:41:31;7.40;;;4.82;;
14076;SDS011;7114;51.100;13.998;2022-08-05T07:43:59;10.13;;;5.05;;
14076;SDS011;7114;51.100;13.998;2022-08-05T07:46:27;7.68;;;5.00;;
14076;SDS011;7114;51.100;13.998;2022-08-05T07:48:55;10.45;;;5.50;;
14076;SDS011;7114;51.100;13.998;2022-08-05T07:51:22;8.27;;;5.37;;
14076;SDS011;7114;51.100;13.998;2022-08-05T07:53:48;8.75;;;5.70;;
14076;SDS011;7114;51.100;13.998;2022-08-05T07:56:15;8.05;;;5.30;;
14076;SDS011;7114;51.100;13.998;2022-08-05T07:58:41;7.18;;;5.00;;
14076;SDS011;7114;51.100;13.998;2022-08-05T08:01:09;8.93;;;5.43;;
14076;SDS011;7114;51.100;13.998;2022-08-05T08:03:35;8.70;;;5.67;;
14076;SDS011;7114;51.100;13.998;2022-08-05T08:06:01;7.40;;;5.33;;
14076;SDS011;7114;51.100;13.998;2022-08-05T08:08:27;8.07;;;5.32;;
14076;SDS011;7114;51.100;13.998;2022-08-05T08:10:54;10.13;;;5.88;;
14076;SDS011;7114;51.100;13.998;2022-08-05T08:13:20;10.90;;;5.63;;
14076;SDS011;7114;51.100;13.998;2022-08-05T08:15:47;7.45;;;5.68;;
14076;SDS011;7114;51.100;13.998;2022-08-05T08:18:14;9.77;;;5.93;;
14076;SDS011;7114;51.100;13.998;2022-08-05T08:20:41;9.68;;;5.97;;
14076;SDS011;7114;51.100;13.998;2022-08-05T08:23:07;9.13;;;6.10;;
14076;SDS011;7114;51.100;13.998;2022-08-05T08:25:34;9.50;;;5.90;;
14076;SDS011;7114;51.100;13.998;2022-08-05T08:28:00;8.30;;;6.20;;
14076;SDS011;7114;51.100;13.998;2022-08-05T08:30:26;10.98;;;6.10;;
14076;SDS011;7114;51.100;13.998;2022-08-05T08:32:53;9.10;;;6.25;;
14076;SDS011;7114;51.100;13.998;2022-08-05T08:35:20;8.65;;;6.18;;
14076;SDS011;7114;51.100;13.998;2022-08-05T08:37:47;10.90;;;5.87;;
14076;SDS011;7114;51.100;13.998;2022-08-05T08:40:13;8.07;;;6.13;;
14076;SDS011;7114;51.100;13.998;2022-08-05T08:42:39;10.27;;;6.60;;
14076;SDS011;7114;51.100;13.998;2022-08-05T08:45:06;10.38;;;6.15;;
14076;SDS011;7114;51.100;13.998;2022-08-05T08:47:33;9.55;;;6.75;;
14076;SDS011;7114;51.100;13.998;2022-08-05T08:50:01;9.38;;;6.45;;
14076;SDS011;7114;51.100;13.998;2022-08-05T08:52:30;9.15;;;6.40;;
14076;SDS011;7114;51.100;13.998;2022-08-05T08:54:58;9.40;;;6.45;;
14076;SDS011;7114;51.100;13.998;2022-08-05T08:57:24;8.57;;;6.10;;
14076;SDS011;7114;51.100;13.998;2022-08-05T08:59:51;7.97;;;6.40;;
14076;SDS011;7114;51.100;13.998;2022-08-05T09:02:18;11.45;;;6.20;;
14076;SDS011;7114;51.100;13.998;2022-08-05T09:04:45;13.23;;;6.55;;
14076;SDS011;7114;51.100;13.998;2022-08-05T09:07:12;10.05;;;6.38;;
14076;SDS011;7114;51.100;13.998;2022-08-05T09:09:39;9.80;;;6.55;;
14076;SDS011;7114;51.100;13.998;2022-08-05T09:12:06;9.20;;;6.35;;
14076;SDS011;7114;51.100;13.998;2022-08-05T09:14:34;7.93;;;6.55;;
14076;SDS011;7114;51.100;13.998;2022-08-05T09:17:00;8.83;;;6.43;;
14076;SDS011;7114;51.100;13.998;2022-08-05T09:19:27;8.73;;;6.75;;
14076;SDS011;7114;51.100;13.998;2022-08-05T09:21:54;10.63;;;6.95;;
14076;SDS011;7114;51.100;13.998;2022-08-05T09:24:20;9.32;;;7.38;;
14076;SDS011;7114;51.100;13.998;2022-08-05T09:26:49;11.13;;;7.50;;
14076;SDS011;7114;51.100;13.998;2022-08-05T09:29:16;11.73;;;7.10;;
14076;SDS011;7114;51.100;13.998;2022-08-05T09:31:42;9.10;;;7.13;;
14076;SDS011;7114;51.100;13.998;2022-08-05T09:34:09;9.77;;;7.00;;
14076;SDS011;7114;51.100;13.998;2022-08-05T09:36:38;11.10;;;7.72;;
14076;SDS011;7114;51.100;13.998;2022-08-05T09:39:09;12.43;;;7.65;;
14076;SDS011;7114;51.100;13.998;2022-08-05T09:44:32;10.63;;;7.47;;
14076;SDS011;7114;51.100;13.998;2022-08-05T09:47:05;9.87;;;7.27;;
14076;SDS011;7114;51.100;13.998;2022-08-05T09:49:33;8.48;;;7.15;;
14076;SDS011;7114;51.100;13.998;2022-08-05T09:51:59;9.73;;;8.35;;
14076;SDS011;7114;51.100;13.998;2022-08-05T09:54:45;10.23;;;7.82;;
14076;SDS011;7114;51.100;13.998;2022-08-05T09:57:28;9.88;;;8.63;;
14076;SDS011;7114;51.100;13.998;2022-08-05T09:59:56;9.83;;;7.97;;
14076;SDS011;7114;51.100;13.998;2022-08-05T10:02:29;9.30;;;7.80;;
14076;SDS011;7114;51.100;13.998;2022-08-05T10:05:01;9.52;;;8.35;;
14076;SDS011;7114;51.100;13.998;2022-08-05T10:07:41;11.65;;;8.70;;
14076;SDS011;7114;51.100;13.998;2022-08-05T10:10:08;10.45;;;8.77;;
14076;SDS011;7114;51.100;13.998;2022-08-05T10:12:39;9.50;;;8.50;;
14076;SDS011;7114;51.100;13.998;2022-08-05T10:15:17;11.17;;;8.07;;
14076;SDS011;7114;51.100;13.998;2022-08-05T10:20:39;11.88;;;8.23;;
14076;SDS011;7114;51.100;13.998;2022-08-05T10:23:08;9.65;;;8.10;;
14076;SDS011;7114;51.100;13.998;2022-08-05T10:25:35;10.43;;;9.05;;
14076;SDS011;7114;51.100;13.998;2022-08-05T10:28:04;10.98;;;8.48;;
14076;SDS011;7114;51.100;13.998;2022-08-05T10:30:31;10.57;;;8.40;;
14076;SDS011;7114;51.100;13.998;2022-08-05T10:32:58;9.68;;;8.45;;
14076;SDS011;7114;51.100;13.998;2022-08-05T10:35:25;12.35;;;8.40;;
14076;SDS011;7114;51.100;13.998;2022-08-05T10:37:52;9.68;;;8.68;;
14076;SDS011;7114;51.100;13.998;2022-08-05T10:40:20;10.13;;;9.02;;
14076;SDS011;7114;51.100;13.998;2022-08-05T10:42:50;8.97;;;8.03;;
14076;SDS011;7114;51.100;13.998;2022-08-05T10:45:25;10.88;;;9.80;;
14076;SDS011;7114;51.100;13.998;2022-08-05T10:47:52;11.88;;;9.35;;
14076;SDS011;7114;51.100;13.998;2022-08-05T10:50:19;9.55;;;8.65;;
14076;SDS011;7114;51.100;13.998;2022-08-05T10:52:46;9.90;;;8.90;;
14076;SDS011;7114;51.100;13.998;2022-08-05T10:55:19;11.63;;;8.80;;
14076;SDS011;7114;51.100;13.998;2022-08-05T10:57:45;10.27;;;8.50;;
14076;SDS011;7114;51.100;13.998;2022-08-05T11:00:13;11.50;;;9.43;;
14076;SDS011;7114;51.100;13.998;2022-08-05T11:05:53;11.55;;;8.55;;
14076;SDS011;7114;51.100;13.998;2022-08-05T11:08:28;10.30;;;8.87;;
14076;SDS011;7114;51.100;13.998;2022-08-05T11:10:54;11.82;;;9.43;;
14076;SDS011;7114;51.100;13.998;2022-08-05T11:14:00;10.23;;;9.23;;
14076;SDS011;7114;51.100;13.998;2022-08-05T11:16:27;10.35;;;9.00;;
14076;SDS011;7114;51.100;13.998;2022-08-05T11:21:52;10.83;;;9.23;;
14076;SDS011;7114;51.100;13.998;2022-08-05T11:24:19;10.63;;;9.05;;
14076;SDS011;7114;51.100;13.998;2022-08-05T11:26:49;10.25;;;9.15;;
14076;SDS011;7114;51.100;13.998;2022-08-05T11:29:34;10.63;;;8.63;;
14076;SDS011;7114;51.100;13.998;2022-08-05T11:34:52;11.20;;;10.10;;
14076;SDS011;7114;51.100;13.998;2022-08-05T11:40:07;14.18;;;10.50;;
14076;SDS011;7114;51.100;13.998;2022-08-05T11:42:34;11.52;;;10.43;;
14076;SDS011;7114;51.100;13.998;2022-08-05T11:45:04;13.90;;;10.40;;
14076;SDS011;7114;51.100;13.998;2022-08-05T11:47:31;10.53;;;9.03;;
14076;SDS011;7114;51.100;13.998;2022-08-05T11:50:00;10.70;;;8.75;;
14076;SDS011;7114;51.100;13.998;2022-08-05T11:52:27;11.45;;;9.25;;
14076;SDS011;7114;51.100;13.998;2022-08-05T11:54:54;12.60;;;9.02;;
14076;SDS011;7114;51.100;13.998;2022-08-05T11:57:20;10.25;;;8.38;;
14076;SDS011;7114;51.100;13.998;2022-08-05T11:59:54;10.13;;;8.10;;
14076;SDS011;7114;51.100;13.998;2022-08-05T12:02:24;9.90;;;8.53;;
14076;SDS011;7114;51.100;13.998;2022-08-05T12:04:51;9.30;;;8.40;;
14076;SDS011;7114;51.100;13.998;2022-08-05T12:07:17;11.98;;;8.45;;
14076;SDS011;7114;51.100;13.998;2022-08-05T12:09:46;9.40;;;8.10;;
14076;SDS011;7114;51.100;13.998;2022-08-05T12:12:19;12.68;;;8.43;;
14076;SDS011;7114;51.100;13.998;2022-08-05T12:14:46;10.70;;;8.70;;
14076;SDS011;7114;51.100;13.998;2022-08-05T12:17:14;10.80;;;9.70;;
14076;SDS011;7114;51.100;13.998;2022-08-05T12:19:41;10.30;;;9.20;;
14076;SDS011;7114;51.100;13.998;2022-08-05T12:22:08;10.25;;;9.25;;
14076;SDS011;7114;51.100;13.998;2022-08-05T12:24:38;9.68;;;8.60;;
14076;SDS011;7114;51.100;13.998;2022-08-05T12:27:05;12.13;;;8.37;;
14076;SDS011;7114;51.100;13.998;2022-08-05T12:29:32;12.53;;;8.97;;
14076;SDS011;7114;51.100;13.998;2022-08-05T12:31:58;10.65;;;7.70;;
14076;SDS011;7114;51.100;13.998;2022-08-05T12:34:31;8.98;;;8.13;;
14076;SDS011;7114;51.100;13.998;2022-08-05T12:37:00;8.30;;;7.28;;
14076;SDS011;7114;51.100;13.998;2022-08-05T12:39:34;8.35;;;7.53;;
14076;SDS011;7114;51.100;13.998;2022-08-05T12:42:00;8.33;;;7.30;;
14076;SDS011;7114;51.100;13.998;2022-08-05T12:44:27;9.45;;;8.48;;
14076;SDS011;7114;51.100;13.998;2022-08-05T12:46:54;10.65;;;8.60;;
14076;SDS011;7114;51.100;13.998;2022-08-05T12:49:21;8.80;;;7.90;;
14076;SDS011;7114;51.100;13.998;2022-08-05T12:51:49;9.32;;;8.43;;
14076;SDS011;7114;51.100;13.998;2022-08-05T12:54:18;9.27;;;7.97;;
14076;SDS011;7114;51.100;13.998;2022-08-05T12:56:46;10.32;;;7.32;;
14076;SDS011;7114;51.100;13.998;2022-08-05T12:59:14;7.95;;;7.13;;
14076;SDS011;7114;51.100;13.998;2022-08-05T13:01:43;8.52;;;7.28;;
14076;SDS011;7114;51.100;13.998;2022-08-05T13:04:10;8.23;;;7.28;;
14076;SDS011;7114;51.100;13.998;2022-08-05T13:06:37;7.73;;;6.53;;
14076;SDS011;7114;51.100;13.998;2022-08-05T13:09:07;9.43;;;6.63;;
14076;SDS011;7114;51.100;13.998;2022-08-05T13:11:36;9.57;;;7.30;;
14076;SDS011;7114;51.100;13.998;2022-08-05T13:14:13;8.93;;;7.25;;
14076;SDS011;7114;51.100;13.998;2022-08-05T13:16:45;10.68;;;7.15;;
14076;SDS011;7114;51.100;13.998;2022-08-05T13:19:15;8.23;;;6.80;;
14076;SDS011;7114;51.100;13.998;2022-08-05T13:21:44;9.43;;;6.73;;
14076;SDS011;7114;51.100;13.998;2022-08-05T13:24:12;11.10;;;7.15;;
14076;SDS011;7114;51.100;13.998;2022-08-05T13:26:39;8.40;;;7.10;;
14076;SDS011;7114;51.100;13.998;2022-08-05T13:29:05;9.70;;;6.80;;
14076;SDS011;7114;51.100;13.998;2022-08-05T13:31:31;9.75;;;6.75;;
14076;SDS011;7114;51.100;13.998;2022-08-05T13:33:57;7.57;;;6.77;;
14076;SDS011;7114;51.100;13.998;2022-08-05T13:36:24;9.00;;;7.27;;
14076;SDS011;7114;51.100;13.998;2022-08-05T13:38:50;7.53;;;6.40;;
14076;SDS011;7114;51.100;13.998;2022-08-05T13:41:18;7.55;;;6.22;;
14076;SDS011;7114;51.100;13.998;2022-08-05T13:43:44;8.65;;;7.85;;
14076;SDS011;7114;51.100;13.998;2022-08-05T13:46:10;10.15;;;6.22;;
14076;SDS011;7114;51.100;13.998;2022-08-05T13:48:36;7.60;;;6.82;;
14076;SDS011;7114;51.100;13.998;2022-08-05T13:51:06;8.23;;;7.30;;
14076;SDS011;7114;51.100;13.998;2022-08-05T13:53:32;8.50;;;7.25;;
14076;SDS011;7114;51.100;13.998;2022-08-05T13:55:59;11.25;;;8.10;;
14076;SDS011;7114;51.100;13.998;2022-08-05T13:58:27;9.20;;;8.30;;
14076;SDS011;7114;51.100;13.998;2022-08-05T14:00:53;8.00;;;7.20;;
14076;SDS011;7114;51.100;13.998;2022-08-05T14:03:20;8.10;;;7.30;;
14076;SDS011;7114;51.100;13.998;2022-08-05T14:05:47;8.37;;;7.57;;
14076;SDS011;7114;51.100;13.998;2022-08-05T14:08:12;8.38;;;7.50;;
14076;SDS011;7114;51.100;13.998;2022-08-05T14:10:38;10.43;;;8.27;;
14076;SDS011;7114;51.100;13.998;2022-08-05T14:13:05;8.77;;;7.13;;
14076;SDS011;7114;51.100;13.998;2022-08-05T14:15:33;8.75;;;6.97;;
14076;SDS011;7114;51.100;13.998;2022-08-05T14:18:00;8.45;;;7.20;;
14076;SDS011;7114;51.100;13.998;2022-08-05T14:20:27;9.38;;;7.53;;
14076;SDS011;7114;51.100;13.998;2022-08-05T14:22:54;8.88;;;6.70;;
14076;SDS011;7114;51.100;13.998;2022-08-05T14:25:21;7.57;;;6.30;;
14076;SDS011;7114;51.100;13.998;2022-08-05T14:27:48;9.47;;;6.13;;
14076;SDS011;7114;51.100;13.998;2022-08-05T14:30:15;7.72;;;5.50;;
14076;SDS011;7114;51.100;13.998;2022-08-05T14:32:44;8.57;;;6.40;;
14076;SDS011;7114;51.100;13.998;2022-08-05T14:35:10;7.00;;;5.50;;
14076;SDS011;7114;51.100;13.998;2022-08-05T14:37:37;7.20;;;6.20;;
14076;SDS011;7114;51.100;13.998;2022-08-05T14:40:04;9.47;;;5.97;;
14076;SDS011;7114;51.100;13.998;2022-08-05T14:42:31;9.83;;;6.33;;
14076;SDS011;7114;51.100;13.998;2022-08-05T14:44:57;7.10;;;5.90;;
14076;SDS011;7114;51.100;13.998;2022-08-05T14:47:24;6.75;;;6.05;;
14076;SDS011;7114;51.100;13.998;2022-08-05T14:49:51;8.68;;;6.22;;
14076;SDS011;7114;51.100;13.998;2022-08-05T14:52:17;7.45;;;5.90;;
14076;SDS011;7114;51.100;13.998;2022-08-05T14:54:44;8.15;;;6.18;;
14076;SDS011;7114;51.100;13.998;2022-08-05T14:57:10;7.47;;;5.73;;
14076;SDS011;7114;51.100;13.998;2022-08-05T14:59:37;7.03;;;5.17;;
14076;SDS011;7114;51.100;13.998;2022-08-05T15:02:03;6.95;;;5.80;;
14076;SDS011;7114;51.100;13.998;2022-08-05T15:04:30;6.75;;;5.82;;